sensor_id;sensor_type;location;lat;lon;timestamp;P1;P2;P0
72307;PMS5003;60257;42.638;23.376;2022-07-12T00:02:10;21.33;19.33;14.00
72307;PMS5003;60257;42.638;23.376;2022-07-12T00:04:36;20.00;18.00;11.67
72307;PMS5003;60257;42.638;23.376;2022-07-12T00:07:01;19.33;19.33;15.00
72307;PMS5003;60257;42.638;23.376;2022-07-12T00:09:27;23.67;23.67;16.67
72307;PMS5003;60257;42.638;23.376;2022-07-12T00:11:52;17.33;17.33;12.00
72307;PMS5003;60257;42.638;23.376;2022-07-12T00:14:18;17.00;14.33;10.33
72307;PMS5003;60257;42.638;23.376;2022-07-12T00:16:43;20.33;20.33;14.67
72307;PMS5003;60257;42.638;23.376;2022-07-12T00:19:09;17.00;17.00;11.67
72307;PMS5003;60257;42.638;23.376;2022-07-12T00:21:34;19.00;18.00;13.33
72307;PMS5003;60257;42.638;23.376;2022-07-12T00:24:00;18.00;18.00;12.67
72307;PMS5003;60257;42.638;23.376;2022-07-12T00:26:25;18.33;17.67;14.33
72307;PMS5003;60257;42.638;23.376;2022-07-12T00:28:51;19.00;19.00;13.00
72307;PMS5003;60257;42.638;23.376;2022-07-12T00:31:16;19.00;19.00;12.00
72307;PMS5003;60257;42.638;23.376;2022-07-12T00:33:43;21.00;21.00;17.00
72307;PMS5003;60257;42.638;23.376;2022-07-12T00:36:08;19.67;19.67;15.00
72307;PMS5003;60257;42.638;23.376;2022-07-12T00:38:34;19.00;19.00;14.00
72307;PMS5003;60257;42.638;23.376;2022-07-12T00:41:00;18.00;17.67;15.00
72307;PMS5003;60257;42.638;23.376;2022-07-12T00:43:25;21.33;20.00;14.00
72307;PMS5003;60257;42.638;23.376;2022-07-12T00:45:51;17.67;17.67;14.00
72307;PMS5003;60257;42.638;23.376;2022-07-12T00:48:18;18.33;18.33;14.67
72307;PMS5003;60257;42.638;23.376;2022-07-12T00:50:44;19.33;19.33;11.67
72307;PMS5003;60257;42.638;23.376;2022-07-12T00:53:11;18.00;17.00;11.33
72307;PMS5003;60257;42.638;23.376;2022-07-12T00:55:38;15.67;15.67;12.67
72307;PMS5003;60257;42.638;23.376;2022-07-12T00:58:03;16.00;16.00;12.00
72307;PMS5003;60257;42.638;23.376;2022-07-12T01:00:29;20.00;20.00;13.00
72307;PMS5003;60257;42.638;23.376;2022-07-12T01:02:56;16.00;16.00;11.67
72307;PMS5003;60257;42.638;23.376;2022-07-12T01:05:23;15.00;15.00;11.67
72307;PMS5003;60257;42.638;23.376;2022-07-12T01:07:50;12.67;12.67;9.67
72307;PMS5003;60257;42.638;23.376;2022-07-12T01:10:16;21.33;19.00;14.00
72307;PMS5003;60257;42.638;23.376;2022-07-12T01:12:42;16.67;16.67;13.33
72307;PMS5003;60257;42.638;23.376;2022-07-12T01:15:08;16.33;13.33;10.00
72307;PMS5003;60257;42.638;23.376;2022-07-12T01:17:34;14.00;14.00;11.00
72307;PMS5003;60257;42.638;23.376;2022-07-12T01:20:00;11.00;11.00;8.67
72307;PMS5003;60257;42.638;23.376;2022-07-12T01:22:27;15.00;15.00;11.00
72307;PMS5003;60257;42.638;23.376;2022-07-12T01:24:56;11.33;11.00;7.00
72307;PMS5003;60257;42.638;23.376;2022-07-12T01:27:22;9.33;9.33;6.33
72307;PMS5003;60257;42.638;23.376;2022-07-12T01:29:47;11.67;11.67;6.00
72307;PMS5003;60257;42.638;23.376;2022-07-12T01:32:13;10.67;9.67;8.00
72307;PMS5003;60257;42.638;23.376;2022-07-12T01:34:51;13.67;13.67;9.67
72307;PMS5003;60257;42.638;23.376;2022-07-12T01:37:18;12.00;12.00;8.33
72307;PMS5003;60257;42.638;23.376;2022-07-12T01:39:45;14.67;13.00;9.00
72307;PMS5003;60257;42.638;23.376;2022-07-12T01:42:13;12.00;12.00;10.00
72307;PMS5003;60257;42.638;23.376;2022-07-12T01:44:39;12.33;11.33;9.00
72307;PMS5003;60257;42.638;23.376;2022-07-12T01:47:04;14.33;14.33;10.33
72307;PMS5003;60257;42.638;23.376;2022-07-12T01:49:30;13.00;13.00;8.67
72307;PMS5003;60257;42.638;23.376;2022-07-12T01:51:55;12.33;12.33;9.33
72307;PMS5003;60257;42.638;23.376;2022-07-12T01:54:23;12.67;12.67;9.00
72307;PMS5003;60257;42.638;23.376;2022-07-12T01:56:49;8.00;8.00;5.00
72307;PMS5003;60257;42.638;23.376;2022-07-12T01:59:15;11.33;10.33;8.00
72307;PMS5003;60257;42.638;23.376;2022-07-12T02:01:40;13.67;13.67;8.00
72307;PMS5003;60257;42.638;23.376;2022-07-12T02:04:07;10.67;10.67;8.00
72307;PMS5003;60257;42.638;23.376;2022-07-12T02:06:33;11.67;11.67;9.00
72307;PMS5003;60257;42.638;23.376;2022-07-12T02:08:58;11.33;11.33;7.33
72307;PMS5003;60257;42.638;23.376;2022-07-12T02:11:24;10.00;10.00;6.33
72307;PMS5003;60257;42.638;23.376;2022-07-12T02:13:50;11.33;9.67;7.33
72307;PMS5003;60257;42.638;23.376;2022-07-12T02:16:16;10.00;10.00;8.00
72307;PMS5003;60257;42.638;23.376;2022-07-12T02:18:41;13.33;13.33;9.67
72307;PMS5003;60257;42.638;23.376;2022-07-12T02:21:07;9.67;9.67;8.00
72307;PMS5003;60257;42.638;23.376;2022-07-12T02:23:32;12.33;12.33;10.00
72307;PMS5003;60257;42.638;23.376;2022-07-12T02:25:58;11.00;11.00;8.00
72307;PMS5003;60257;42.638;23.376;2022-07-12T02:28:24;12.33;12.00;7.00
72307;PMS5003;60257;42.638;23.376;2022-07-12T02:30:49;14.00;14.00;9.33
72307;PMS5003;60257;42.638;23.376;2022-07-12T02:33:15;14.67;14.67;9.67
72307;PMS5003;60257;42.638;23.376;2022-07-12T02:35:41;11.00;11.00;9.00
72307;PMS5003;60257;42.638;23.376;2022-07-12T02:38:07;12.00;12.00;8.00
72307;PMS5003;60257;42.638;23.376;2022-07-12T02:40:33;11.33;11.33;9.33
72307;PMS5003;60257;42.638;23.376;2022-07-12T02:43:17;13.33;11.00;8.67
72307;PMS5003;60257;42.638;23.376;2022-07-12T02:45:42;14.00;13.67;9.00
72307;PMS5003;60257;42.638;23.376;2022-07-12T02:48:08;13.00;12.33;7.00
72307;PMS5003;60257;42.638;23.376;2022-07-12T02:50:35;16.67;14.00;9.67
72307;PMS5003;60257;42.638;23.376;2022-07-12T02:53:01;11.00;11.00;9.00
72307;PMS5003;60257;42.638;23.376;2022-07-12T02:55:26;14.00;14.00;10.00
72307;PMS5003;60257;42.638;23.376;2022-07-12T02:57:52;11.67;11.67;8.67
72307;PMS5003;60257;42.638;23.376;2022-07-12T03:00:17;13.67;13.33;8.00
72307;PMS5003;60257;42.638;23.376;2022-07-12T03:02:42;14.00;14.00;8.33
72307;PMS5003;60257;42.638;23.376;2022-07-12T03:05:08;8.00;8.00;6.00
72307;PMS5003;60257;42.638;23.376;2022-07-12T03:07:34;12.00;11.00;6.33
72307;PMS5003;60257;42.638;23.376;2022-07-12T03:09:59;15.00;15.00;9.00
72307;PMS5003;60257;42.638;23.376;2022-07-12T03:12:24;14.33;12.67;9.00
72307;PMS5003;60257;42.638;23.376;2022-07-12T03:14:50;15.67;15.67;9.00
72307;PMS5003;60257;42.638;23.376;2022-07-12T03:17:15;10.67;10.00;7.67
72307;PMS5003;60257;42.638;23.376;2022-07-12T03:19:41;12.33;12.00;8.00
72307;PMS5003;60257;42.638;23.376;2022-07-12T03:22:06;11.33;10.00;9.00
72307;PMS5003;60257;42.638;23.376;2022-07-12T03:24:32;14.00;13.00;7.00
72307;PMS5003;60257;42.638;23.376;2022-07-12T03:26:57;8.67;7.33;6.00
72307;PMS5003;60257;42.638;23.376;2022-07-12T03:29:23;11.00;11.00;8.00
72307;PMS5003;60257;42.638;23.376;2022-07-12T03:31:48;10.00;10.00;6.00
72307;PMS5003;60257;42.638;23.376;2022-07-12T03:34:14;10.67;9.67;9.00
72307;PMS5003;60257;42.638;23.376;2022-07-12T03:36:39;13.00;11.00;7.33
72307;PMS5003;60257;42.638;23.376;2022-07-12T03:39:05;12.67;11.00;9.00
72307;PMS5003;60257;42.638;23.376;2022-07-12T03:41:30;14.00;14.00;8.00
72307;PMS5003;60257;42.638;23.376;2022-07-12T03:43:56;14.00;14.00;10.33
72307;PMS5003;60257;42.638;23.376;2022-07-12T03:46:21;15.00;15.00;11.00
72307;PMS5003;60257;42.638;23.376;2022-07-12T03:48:47;16.00;16.00;9.33
72307;PMS5003;60257;42.638;23.376;2022-07-12T03:51:12;16.67;14.00;9.67
72307;PMS5003;60257;42.638;23.376;2022-07-12T03:53:38;17.67;17.67;12.00
72307;PMS5003;60257;42.638;23.376;2022-07-12T03:56:03;13.67;13.67;10.00
72307;PMS5003;60257;42.638;23.376;2022-07-12T03:58:29;16.67;14.67;11.00
72307;PMS5003;60257;42.638;23.376;2022-07-12T04:00:54;14.67;13.00;9.00
72307;PMS5003;60257;42.638;23.376;2022-07-12T04:03:20;13.67;13.67;9.67
72307;PMS5003;60257;42.638;23.376;2022-07-12T04:05:45;17.33;14.00;11.00
72307;PMS5003;60257;42.638;23.376;2022-07-12T04:08:11;12.00;12.00;9.00
72307;PMS5003;60257;42.638;23.376;2022-07-12T04:10:36;11.67;11.67;8.67
72307;PMS5003;60257;42.638;23.376;2022-07-12T04:13:02;12.00;12.00;9.00
72307;PMS5003;60257;42.638;23.376;2022-07-12T04:15:27;10.00;9.00;5.67
72307;PMS5003;60257;42.638;23.376;2022-07-12T04:17:53;14.33;14.33;9.00
72307;PMS5003;60257;42.638;23.376;2022-07-12T04:20:18;11.33;11.33;9.00
72307;PMS5003;60257;42.638;23.376;2022-07-12T04:22:44;15.00;15.00;12.00
72307;PMS5003;60257;42.638;23.376;2022-07-12T04:25:10;12.00;11.00;9.00
72307;PMS5003;60257;42.638;23.376;2022-07-12T04:27:35;11.00;11.00;8.67
72307;PMS5003;60257;42.638;23.376;2022-07-12T04:30:02;13.67;13.67;8.67
72307;PMS5003;60257;42.638;23.376;2022-07-12T04:32:27;17.00;17.00;12.33
72307;PMS5003;60257;42.638;23.376;2022-07-12T04:34:53;14.00;14.00;9.67
72307;PMS5003;60257;42.638;23.376;2022-07-12T04:37:18;6.00;6.00;3.00
72307;PMS5003;60257;42.638;23.376;2022-07-12T04:39:44;14.00;14.00;10.00
72307;PMS5003;60257;42.638;23.376;2022-07-12T04:42:09;15.67;15.67;11.00
72307;PMS5003;60257;42.638;23.376;2022-07-12T04:44:35;18.67;16.00;11.67
72307;PMS5003;60257;42.638;23.376;2022-07-12T04:47:00;15.67;15.67;11.00
72307;PMS5003;60257;42.638;23.376;2022-07-12T04:49:26;15.67;15.67;10.00
72307;PMS5003;60257;42.638;23.376;2022-07-12T04:51:51;14.00;12.67;10.67
72307;PMS5003;60257;42.638;23.376;2022-07-12T04:54:17;19.33;17.00;12.00
72307;PMS5003;60257;42.638;23.376;2022-07-12T04:56:42;14.00;14.00;11.00
72307;PMS5003;60257;42.638;23.376;2022-07-12T04:59:08;19.33;17.33;12.33
72307;PMS5003;60257;42.638;23.376;2022-07-12T05:01:33;20.00;20.00;13.33
72307;PMS5003;60257;42.638;23.376;2022-07-12T05:03:59;18.00;18.00;14.00
72307;PMS5003;60257;42.638;23.376;2022-07-12T05:06:25;16.67;15.67;12.00
72307;PMS5003;60257;42.638;23.376;2022-07-12T05:08:50;17.33;17.33;12.00
72307;PMS5003;60257;42.638;23.376;2022-07-12T05:11:16;22.33;18.67;14.33
72307;PMS5003;60257;42.638;23.376;2022-07-12T05:13:42;20.67;18.00;12.33
72307;PMS5003;60257;42.638;23.376;2022-07-12T05:16:08;18.67;18.67;14.00
72307;PMS5003;60257;42.638;23.376;2022-07-12T05:18:34;17.00;17.00;14.00
72307;PMS5003;60257;42.638;23.376;2022-07-12T05:21:00;18.67;16.67;11.67
72307;PMS5003;60257;42.638;23.376;2022-07-12T05:23:26;17.00;16.67;13.67
72307;PMS5003;60257;42.638;23.376;2022-07-12T05:25:52;21.00;21.00;14.67
72307;PMS5003;60257;42.638;23.376;2022-07-12T05:28:17;19.33;18.33;12.33
72307;PMS5003;60257;42.638;23.376;2022-07-12T05:30:43;21.00;21.00;15.00
72307;PMS5003;60257;42.638;23.376;2022-07-12T05:33:09;25.00;20.33;15.00
72307;PMS5003;60257;42.638;23.376;2022-07-12T05:35:34;16.00;14.67;13.00
72307;PMS5003;60257;42.638;23.376;2022-07-12T05:38:00;19.00;19.00;15.67
72307;PMS5003;60257;42.638;23.376;2022-07-12T05:40:26;22.33;22.33;16.33
72307;PMS5003;60257;42.638;23.376;2022-07-12T05:42:52;21.67;21.33;15.67
72307;PMS5003;60257;42.638;23.376;2022-07-12T05:45:17;23.67;23.33;15.00
72307;PMS5003;60257;42.638;23.376;2022-07-12T05:47:43;24.00;22.67;16.33
72307;PMS5003;60257;42.638;23.376;2022-07-12T05:50:08;21.67;21.33;15.00
72307;PMS5003;60257;42.638;23.376;2022-07-12T05:52:34;25.67;22.00;16.67
72307;PMS5003;60257;42.638;23.376;2022-07-12T05:55:18;25.33;22.67;17.33
72307;PMS5003;60257;42.638;23.376;2022-07-12T05:57:43;26.33;24.67;17.67
72307;PMS5003;60257;42.638;23.376;2022-07-12T06:00:09;23.00;23.00;17.67
72307;PMS5003;60257;42.638;23.376;2022-07-12T06:02:35;24.00;23.67;17.33
72307;PMS5003;60257;42.638;23.376;2022-07-12T06:05:00;21.67;20.67;15.00
72307;PMS5003;60257;42.638;23.376;2022-07-12T06:07:25;26.67;22.00;16.00
72307;PMS5003;60257;42.638;23.376;2022-07-12T06:09:51;22.33;20.33;14.33
72307;PMS5003;60257;42.638;23.376;2022-07-12T06:12:17;16.00;16.00;12.00
72307;PMS5003;60257;42.638;23.376;2022-07-12T06:14:42;18.00;17.00;12.00
72307;PMS5003;60257;42.638;23.376;2022-07-12T06:17:08;16.00;16.00;12.00
72307;PMS5003;60257;42.638;23.376;2022-07-12T06:19:34;18.00;17.33;12.00
72307;PMS5003;60257;42.638;23.376;2022-07-12T06:21:59;18.00;14.00;10.33
72307;PMS5003;60257;42.638;23.376;2022-07-12T06:24:26;20.33;17.00;13.67
72307;PMS5003;60257;42.638;23.376;2022-07-12T06:26:51;16.67;16.67;14.00
72307;PMS5003;60257;42.638;23.376;2022-07-12T06:29:16;21.33;20.33;13.00
72307;PMS5003;60257;42.638;23.376;2022-07-12T06:31:42;19.67;19.00;12.67
72307;PMS5003;60257;42.638;23.376;2022-07-12T06:34:07;17.67;17.67;12.33
72307;PMS5003;60257;42.638;23.376;2022-07-12T06:36:33;19.33;18.33;13.00
72307;PMS5003;60257;42.638;23.376;2022-07-12T06:38:58;19.00;19.00;12.33
72307;PMS5003;60257;42.638;23.376;2022-07-12T06:41:23;18.67;16.00;10.33
72307;PMS5003;60257;42.638;23.376;2022-07-12T06:43:50;12.00;11.67;8.00
72307;PMS5003;60257;42.638;23.376;2022-07-12T06:46:15;15.33;15.33;11.00
72307;PMS5003;60257;42.638;23.376;2022-07-12T06:48:41;14.33;14.33;10.67
72307;PMS5003;60257;42.638;23.376;2022-07-12T06:51:06;15.67;15.00;11.33
72307;PMS5003;60257;42.638;23.376;2022-07-12T06:53:32;17.67;16.67;11.67
72307;PMS5003;60257;42.638;23.376;2022-07-12T06:55:57;9.00;8.00;5.25
72307;PMS5003;60257;42.638;23.376;2022-07-12T06:58:23;8.25;8.25;6.00
72307;PMS5003;60257;42.638;23.376;2022-07-12T07:00:48;10.00;9.00;6.00
72307;PMS5003;60257;42.638;23.376;2022-07-12T07:03:14;7.50;7.50;4.75
72307;PMS5003;60257;42.638;23.376;2022-07-12T07:05:39;9.25;8.00;7.00
72307;PMS5003;60257;42.638;23.376;2022-07-12T07:08:05;13.00;9.50;5.25
72307;PMS5003;60257;42.638;23.376;2022-07-12T07:10:30;9.50;8.75;6.00
72307;PMS5003;60257;42.638;23.376;2022-07-12T07:12:56;10.25;8.50;6.00
72307;PMS5003;60257;42.638;23.376;2022-07-12T07:15:22;11.75;8.00;6.50
72307;PMS5003;60257;42.638;23.376;2022-07-12T07:17:47;8.50;8.50;6.00
72307;PMS5003;60257;42.638;23.376;2022-07-12T07:20:13;11.50;9.00;6.50
72307;PMS5003;60257;42.638;23.376;2022-07-12T07:22:38;9.75;9.75;8.00
72307;PMS5003;60257;42.638;23.376;2022-07-12T07:25:05;9.00;9.00;7.25
72307;PMS5003;60257;42.638;23.376;2022-07-12T07:27:31;5.00;4.25;3.75
72307;PMS5003;60257;42.638;23.376;2022-07-12T07:29:57;8.00;8.00;5.75
72307;PMS5003;60257;42.638;23.376;2022-07-12T07:32:41;8.00;8.00;6.00
72307;PMS5003;60257;42.638;23.376;2022-07-12T07:35:07;8.25;7.00;5.00
72307;PMS5003;60257;42.638;23.376;2022-07-12T07:37:33;7.50;7.00;5.25
72307;PMS5003;60257;42.638;23.376;2022-07-12T07:39:58;7.00;6.75;5.00
72307;PMS5003;60257;42.638;23.376;2022-07-12T07:42:24;7.25;7.25;6.00
72307;PMS5003;60257;42.638;23.376;2022-07-12T07:44:50;7.50;6.00;5.00
72307;PMS5003;60257;42.638;23.376;2022-07-12T07:47:15;7.00;7.00;5.25
72307;PMS5003;60257;42.638;23.376;2022-07-12T07:49:41;7.00;7.00;4.75
72307;PMS5003;60257;42.638;23.376;2022-07-12T07:52:06;7.75;7.75;6.00
72307;PMS5003;60257;42.638;23.376;2022-07-12T07:54:31;11.00;11.00;8.75
72307;PMS5003;60257;42.638;23.376;2022-07-12T07:57:00;7.25;7.00;5.00
72307;PMS5003;60257;42.638;23.376;2022-07-12T07:59:25;8.00;7.00;4.75
72307;PMS5003;60257;42.638;23.376;2022-07-12T08:01:51;2.25;2.00;0.00
72307;PMS5003;60257;42.638;23.376;2022-07-12T08:04:19;7.00;7.00;5.00
72307;PMS5003;60257;42.638;23.376;2022-07-12T08:06:46;8.50;8.50;5.25
72307;PMS5003;60257;42.638;23.376;2022-07-12T08:09:12;6.25;5.75;4.00
72307;PMS5003;60257;42.638;23.376;2022-07-12T08:11:38;6.25;5.25;3.75
72307;PMS5003;60257;42.638;23.376;2022-07-12T08:14:04;4.00;3.25;1.50
72307;PMS5003;60257;42.638;23.376;2022-07-12T08:16:31;6.50;5.25;3.00
72307;PMS5003;60257;42.638;23.376;2022-07-12T08:18:57;6.00;4.75;3.00
72307;PMS5003;60257;42.638;23.376;2022-07-12T08:21:23;6.00;6.00;4.00
72307;PMS5003;60257;42.638;23.376;2022-07-12T08:23:49;4.75;4.75;3.00
72307;PMS5003;60257;42.638;23.376;2022-07-12T08:26:15;6.50;4.50;3.50
72307;PMS5003;60257;42.638;23.376;2022-07-12T08:28:40;8.75;5.00;4.00
72307;PMS5003;60257;42.638;23.376;2022-07-12T08:31:06;6.75;6.00;5.00
72307;PMS5003;60257;42.638;23.376;2022-07-12T08:33:32;4.50;3.00;2.00
72307;PMS5003;60257;42.638;23.376;2022-07-12T08:35:58;5.00;5.00;4.00
72307;PMS5003;60257;42.638;23.376;2022-07-12T08:38:23;4.00;4.00;2.25
72307;PMS5003;60257;42.638;23.376;2022-07-12T08:40:49;6.00;6.00;4.50
72307;PMS5003;60257;42.638;23.376;2022-07-12T08:43:14;4.75;4.75;4.00
72307;PMS5003;60257;42.638;23.376;2022-07-12T08:45:40;6.25;6.25;4.00
72307;PMS5003;60257;42.638;23.376;2022-07-12T08:48:06;7.00;6.75;4.50
72307;PMS5003;60257;42.638;23.376;2022-07-12T08:50:32;6.00;6.00;5.00
72307;PMS5003;60257;42.638;23.376;2022-07-12T08:52:58;8.75;6.25;5.25
72307;PMS5003;60257;42.638;23.376;2022-07-12T08:55:24;5.50;5.50;4.00
72307;PMS5003;60257;42.638;23.376;2022-07-12T08:57:56;6.50;5.00;3.50
72307;PMS5003;60257;42.638;23.376;2022-07-12T09:00:27;6.25;6.25;5.00
72307;PMS5003;60257;42.638;23.376;2022-07-12T09:02:55;5.00;5.00;4.00
72307;PMS5003;60257;42.638;23.376;2022-07-12T09:05:22;2.50;2.50;0.75
72307;PMS5003;60257;42.638;23.376;2022-07-12T09:07:49;6.50;6.00;4.00
72307;PMS5003;60257;42.638;23.376;2022-07-12T09:10:16;5.00;5.00;4.00
72307;PMS5003;60257;42.638;23.376;2022-07-12T09:12:42;4.25;4.25;3.00
72307;PMS5003;60257;42.638;23.376;2022-07-12T09:15:22;7.75;5.75;4.00
72307;PMS5003;60257;42.638;23.376;2022-07-12T09:20:29;5.00;5.00;3.50
72307;PMS5003;60257;42.638;23.376;2022-07-12T09:23:00;3.75;3.75;2.50
72307;PMS5003;60257;42.638;23.376;2022-07-12T09:25:28;5.00;5.00;3.75
72307;PMS5003;60257;42.638;23.376;2022-07-12T09:27:54;4.50;4.00;3.50
72307;PMS5003;60257;42.638;23.376;2022-07-12T09:30:24;3.25;3.25;3.00
72307;PMS5003;60257;42.638;23.376;2022-07-12T09:32:59;5.75;5.00;3.00
72307;PMS5003;60257;42.638;23.376;2022-07-12T09:38:39;3.50;3.50;2.00
72307;PMS5003;60257;42.638;23.376;2022-07-12T09:41:16;3.75;2.75;1.75
72307;PMS5003;60257;42.638;23.376;2022-07-12T09:43:42;2.50;2.50;1.50
72307;PMS5003;60257;42.638;23.376;2022-07-12T09:46:09;4.50;3.50;2.00
72307;PMS5003;60257;42.638;23.376;2022-07-12T09:48:35;3.00;3.00;3.00
72307;PMS5003;60257;42.638;23.376;2022-07-12T09:51:02;4.00;4.00;3.00
72307;PMS5003;60257;42.638;23.376;2022-07-12T09:53:33;3.75;3.75;2.00
72307;PMS5003;60257;42.638;23.376;2022-07-12T09:56:07;4.00;4.00;2.00
72307;PMS5003;60257;42.638;23.376;2022-07-12T09:58:54;3.50;3.50;2.25
72307;PMS5003;60257;42.638;23.376;2022-07-12T10:01:22;4.50;4.50;3.00
72307;PMS5003;60257;42.638;23.376;2022-07-12T10:03:49;1.75;1.75;1.00
72307;PMS5003;60257;42.638;23.376;2022-07-12T10:06:16;3.75;3.75;3.00
72307;PMS5003;60257;42.638;23.376;2022-07-12T10:08:50;3.00;3.00;1.75
72307;PMS5003;60257;42.638;23.376;2022-07-12T10:11:16;8.00;7.00;5.00
72307;PMS5003;60257;42.638;23.376;2022-07-12T10:13:42;3.75;3.00;1.50
72307;PMS5003;60257;42.638;23.376;2022-07-12T10:16:08;5.75;3.00;2.00
72307;PMS5003;60257;42.638;23.376;2022-07-12T10:18:37;3.75;2.75;2.00
72307;PMS5003;60257;42.638;23.376;2022-07-12T10:21:15;3.00;3.00;2.00
72307;PMS5003;60257;42.638;23.376;2022-07-12T10:23:43;4.00;3.50;2.50
72307;PMS5003;60257;42.638;23.376;2022-07-12T10:31:23;2.00;2.00;1.50
72307;PMS5003;60257;42.638;23.376;2022-07-12T10:34:07;2.00;2.00;1.00
72307;PMS5003;60257;42.638;23.376;2022-07-12T10:39:25;2.00;2.00;1.00
72307;PMS5003;60257;42.638;23.376;2022-07-12T10:44:32;1.50;1.50;1.00
72307;PMS5003;60257;42.638;23.376;2022-07-12T10:47:06;2.50;2.50;1.25
72307;PMS5003;60257;42.638;23.376;2022-07-12T10:49:33;3.00;3.00;3.00
72307;PMS5003;60257;42.638;23.376;2022-07-12T10:52:14;1.00;1.00;0.00
72307;PMS5003;60257;42.638;23.376;2022-07-12T10:57:41;6.50;4.25;2.75
72307;PMS5003;60257;42.638;23.376;2022-07-12T11:00:11;6.00;3.00;2.00
72307;PMS5003;60257;42.638;23.376;2022-07-12T11:02:39;5.00;5.00;3.50
72307;PMS5003;60257;42.638;23.376;2022-07-12T11:05:05;2.00;2.00;1.00
72307;PMS5003;60257;42.638;23.376;2022-07-12T11:07:31;5.00;3.75;1.75
72307;PMS5003;60257;42.638;23.376;2022-07-12T11:09:57;6.00;5.00;2.00
72307;PMS5003;60257;42.638;23.376;2022-07-12T11:12:29;4.00;4.00;3.00
72307;PMS5003;60257;42.638;23.376;2022-07-12T11:14:55;4.00;4.00;3.00
72307;PMS5003;60257;42.638;23.376;2022-07-12T11:17:26;3.50;3.50;2.75
72307;PMS5003;60257;42.638;23.376;2022-07-12T11:20:11;5.50;3.25;2.75
72307;PMS5003;60257;42.638;23.376;2022-07-12T11:22:41;5.00;4.25;3.00
72307;PMS5003;60257;42.638;23.376;2022-07-12T11:25:08;3.25;3.25;2.75
72307;PMS5003;60257;42.638;23.376;2022-07-12T11:27:35;4.50;4.50;3.00
72307;PMS5003;60257;42.638;23.376;2022-07-12T11:30:01;7.25;7.25;5.00
72307;PMS5003;60257;42.638;23.376;2022-07-12T11:32:39;5.25;5.25;4.50
72307;PMS5003;60257;42.638;23.376;2022-07-12T11:35:28;6.00;6.00;5.00
72307;PMS5003;60257;42.638;23.376;2022-07-12T11:37:55;4.50;4.50;2.75
72307;PMS5003;60257;42.638;23.376;2022-07-12T11:40:22;6.00;4.75;3.00
72307;PMS5003;60257;42.638;23.376;2022-07-12T11:42:59;3.00;3.00;2.00
72307;PMS5003;60257;42.638;23.376;2022-07-12T11:45:26;4.75;4.75;3.00
72307;PMS5003;60257;42.638;23.376;2022-07-12T11:47:53;3.75;3.25;2.25
72307;PMS5003;60257;42.638;23.376;2022-07-12T11:50:19;3.25;3.25;2.00
72307;PMS5003;60257;42.638;23.376;2022-07-12T11:52:45;4.25;4.00;3.00
72307;PMS5003;60257;42.638;23.376;2022-07-12T11:55:11;6.25;5.00;3.00
72307;PMS5003;60257;42.638;23.376;2022-07-12T11:57:36;6.00;5.00;4.00
72307;PMS5003;60257;42.638;23.376;2022-07-12T12:00:23;3.00;3.00;1.50
72307;PMS5003;60257;42.638;23.376;2022-07-12T12:02:51;4.00;4.00;3.00
72307;PMS5003;60257;42.638;23.376;2022-07-12T12:05:18;5.75;4.75;2.75
72307;PMS5003;60257;42.638;23.376;2022-07-12T12:07:45;4.25;4.25;4.00
72307;PMS5003;60257;42.638;23.376;2022-07-12T12:10:12;4.00;4.00;4.00
72307;PMS5003;60257;42.638;23.376;2022-07-12T12:12:41;7.25;7.25;5.00
72307;PMS5003;60257;42.638;23.376;2022-07-12T12:15:13;6.00;6.00;4.00
72307;PMS5003;60257;42.638;23.376;2022-07-12T12:17:44;0.00;0.00;0.00
72307;PMS5003;60257;42.638;23.376;2022-07-12T12:20:20;5.00;4.00;3.00
72307;PMS5003;60257;42.638;23.376;2022-07-12T12:22:52;4.75;4.75;4.00
72307;PMS5003;60257;42.638;23.376;2022-07-12T12:25:18;7.00;5.50;3.75
72307;PMS5003;60257;42.638;23.376;2022-07-12T12:27:48;7.00;5.00;3.75
72307;PMS5003;60257;42.638;23.376;2022-07-12T12:30:17;3.00;3.00;3.00
72307;PMS5003;60257;42.638;23.376;2022-07-12T12:32:52;5.00;4.00;3.00
72307;PMS5003;60257;42.638;23.376;2022-07-12T12:35:25;4.25;4.25;3.25
72307;PMS5003;60257;42.638;23.376;2022-07-12T12:37:57;5.00;5.00;3.00
72307;PMS5003;60257;42.638;23.376;2022-07-12T12:40:24;7.00;6.75;5.00
72307;PMS5003;60257;42.638;23.376;2022-07-12T12:42:51;3.00;3.00;2.25
72307;PMS5003;60257;42.638;23.376;2022-07-12T12:45:24;4.00;3.00;2.25
72307;PMS5003;60257;42.638;23.376;2022-07-12T12:47:53;6.00;4.75;3.00
72307;PMS5003;60257;42.638;23.376;2022-07-12T12:50:38;4.00;4.00;3.25
72307;PMS5003;60257;42.638;23.376;2022-07-12T12:55:38;6.00;6.00;4.25
72307;PMS5003;60257;42.638;23.376;2022-07-12T12:58:04;3.00;3.00;3.00
72307;PMS5003;60257;42.638;23.376;2022-07-12T13:00:30;5.25;5.00;4.00
72307;PMS5003;60257;42.638;23.376;2022-07-12T13:02:56;5.75;4.00;3.25
72307;PMS5003;60257;42.638;23.376;2022-07-12T13:05:25;14.75;14.00;9.00
72307;PMS5003;60257;42.638;23.376;2022-07-12T13:07:51;4.00;4.00;2.00
72307;PMS5003;60257;42.638;23.376;2022-07-12T13:10:17;4.00;4.00;3.00
72307;PMS5003;60257;42.638;23.376;2022-07-12T13:12:42;5.00;5.00;3.25
72307;PMS5003;60257;42.638;23.376;2022-07-12T13:15:08;5.75;5.75;4.00
72307;PMS5003;60257;42.638;23.376;2022-07-12T13:17:34;6.25;5.00;1.75
72307;PMS5003;60257;42.638;23.376;2022-07-12T13:19:59;3.75;3.75;2.75
72307;PMS5003;60257;42.638;23.376;2022-07-12T13:22:25;5.00;4.00;2.50
72307;PMS5003;60257;42.638;23.376;2022-07-12T13:24:50;5.00;5.00;4.00
72307;PMS5003;60257;42.638;23.376;2022-07-12T13:27:16;5.25;4.25;3.00
72307;PMS5003;60257;42.638;23.376;2022-07-12T13:29:41;5.00;5.00;3.00
72307;PMS5003;60257;42.638;23.376;2022-07-12T13:32:07;6.75;6.75;4.00
72307;PMS5003;60257;42.638;23.376;2022-07-12T13:34:32;6.50;6.50;4.75
72307;PMS5003;60257;42.638;23.376;2022-07-12T13:36:57;5.00;5.00;4.00
72307;PMS5003;60257;42.638;23.376;2022-07-12T13:39:23;5.50;4.00;3.00
72307;PMS5003;60257;42.638;23.376;2022-07-12T13:42:07;3.25;3.25;2.75
72307;PMS5003;60257;42.638;23.376;2022-07-12T13:44:32;4.25;3.25;2.25
72307;PMS5003;60257;42.638;23.376;2022-07-12T13:46:58;5.00;4.25;3.25
72307;PMS5003;60257;42.638;23.376;2022-07-12T13:49:24;5.00;4.00;2.00
72307;PMS5003;60257;42.638;23.376;2022-07-12T13:51:49;4.75;4.75;3.00
72307;PMS5003;60257;42.638;23.376;2022-07-12T13:54:15;4.00;4.00;3.00
72307;PMS5003;60257;42.638;23.376;2022-07-12T13:56:40;5.25;5.25;3.00
72307;PMS5003;60257;42.638;23.376;2022-07-12T13:59:06;3.00;3.00;2.00
72307;PMS5003;60257;42.638;23.376;2022-07-12T14:01:32;6.25;6.25;3.75
72307;PMS5003;60257;42.638;23.376;2022-07-12T14:03:57;4.75;4.00;3.00
72307;PMS5003;60257;42.638;23.376;2022-07-12T14:06:23;5.75;5.00;3.00
72307;PMS5003;60257;42.638;23.376;2022-07-12T14:08:49;4.00;4.00;3.00
72307;PMS5003;60257;42.638;23.376;2022-07-12T14:11:16;6.25;6.25;4.00
72307;PMS5003;60257;42.638;23.376;2022-07-12T14:13:41;4.25;4.25;3.25
72307;PMS5003;60257;42.638;23.376;2022-07-12T14:16:07;5.00;5.00;3.00